Bremen, Kentucky
Current Conditions -  °F | °C
As of 6:15 AM on Monday 26 Jan 2015 (Local Time) from K2I0 Reporting Station
Overcast Overcast  
Wind Chill: 22°   Ceiling: 1400
Heat Index: 33°   Visibility: 10mi
Dew Point: 29°   Wind: 16mph
Humidity: 87%   Direction: 350°N
Pressure: 29.98"   Gusts: 23mph
Location:  37.36°N, 87.22°W
Report Text: K2I0 261215Z AUTO 35014G20KT 10SM OVC014 01/M01 A2998 RMK AO2 T00051015
Loading
Personal Weather Stations






























Interactive Weather Map New forecast layout! Learn more

10-Day Weather Forecast

Advertisements
Track Severe Weather on mobile